Time;durP1;ratioP1;P1;durP2;ratioP2;P2;SDS_P1;SDS_P2;PMS_P1;PMS_P2;Temp;Humidity;BMP_temperature;BMP_pressure;BME280_temperature;BME280_humidity;BME280_pressure;Samples;Min_cycle;Max_cycle;Signal;HPM_P1;HPM_P2
2022/03/13 00:01:46;;;;;;;;;;;21.30;22.10;;;;;;5119519;27;20472;-51
2022/03/13 00:04:13;;;;;;;;;;;21.00;22.20;;;;;;5127081;27;19948;-60
2022/03/13 00:06:39;;;;;;;;;;;21.10;22.20;;;;;;5122220;27;19975;-52
2022/03/13 00:09:05;;;;;;;;;;;21.10;22.20;;;;;;5122048;27;20023;-60
2022/03/13 00:11:31;;;;;;;;;;;21.10;22.20;;;;;;5127562;27;20467;-54
2022/03/13 00:13:58;;;;;;;;;;;21.20;22.10;;;;;;5122048;27;20387;-58
2022/03/13 00:16:25;;;;;;;;;;;21.20;22.10;;;;;;5121894;27;20175;-55
2022/03/13 00:18:51;;;;;;;;;;;21.10;22.10;;;;;;5122535;27;19923;-59
2022/03/13 00:21:18;;;;;;;;;;;21.20;22.00;;;;;;5121016;27;19981;-60
2022/03/13 00:23:43;;;;;;;;;;;21.00;22.20;;;;;;5125330;27;20018;-59
2022/03/13 00:26:09;;;;;;;;;;;21.10;22.20;;;;;;5124083;27;20400;-60
2022/03/13 00:28:36;;;;;;;;;;;21.10;22.10;;;;;;5121950;27;19930;-58
2022/03/13 00:31:03;;;;;;;;;;;21.00;22.20;;;;;;5127267;27;19923;-59
2022/03/13 00:33:28;;;;;;;;;;;21.30;22.00;;;;;;5121729;27;19929;-59
2022/03/13 00:35:54;;;;;;;;;;;21.20;22.00;;;;;;5120725;27;20399;-59
2022/03/13 00:38:22;;;;;;;;;;;21.10;21.90;;;;;;5123491;27;20340;-60
2022/03/13 00:40:51;;;;;;;;;;;21.20;21.90;;;;;;5121384;27;19923;-57
2022/03/13 00:43:18;;;;;;;;;;;21.00;22.00;;;;;;5121774;27;19923;-61
2022/03/13 00:45:43;;;;;;;;;;;21.20;21.90;;;;;;5126963;27;19944;-59
2022/03/13 00:48:09;;;;;;;;;;;21.00;22.00;;;;;;5121651;27;19923;-57
2022/03/13 00:50:35;;;;;;;;;;;21.20;21.90;;;;;;5127286;27;19974;-58
2022/03/13 00:53:01;;;;;;;;;;;21.10;22.00;;;;;;5121592;27;20030;-59
2022/03/13 00:55:27;;;;;;;;;;;21.10;21.80;;;;;;5118426;28;19986;-58
2022/03/13 00:57:54;;;;;;;;;;;21.10;21.80;;;;;;5123501;27;19935;-58
2022/03/13 01:00:20;;;;;;;;;;;21.20;21.80;;;;;;5125581;27;19923;-60
2022/03/13 01:02:46;;;;;;;;;;;21.10;21.90;;;;;;5125797;27;20234;-55
2022/03/13 01:05:15;;;;;;;;;;;21.20;21.80;;;;;;5131478;27;19924;-60
2022/03/13 01:07:40;;;;;;;;;;;21.10;21.90;;;;;;5124507;27;20379;-56
2022/03/13 01:10:06;;;;;;;;;;;21.20;21.70;;;;;;5131254;27;19924;-55
2022/03/13 01:12:32;;;;;;;;;;;21.20;21.70;;;;;;5125464;27;19923;-58
2022/03/13 01:14:58;;;;;;;;;;;21.20;21.70;;;;;;5121605;27;20447;-58
2022/03/13 01:17:24;;;;;;;;;;;21.20;21.80;;;;;;5129007;27;19982;-52
2022/03/13 01:19:50;;;;;;;;;;;21.00;21.90;;;;;;5125509;27;20013;-57
2022/03/13 01:22:16;;;;;;;;;;;21.00;22.00;;;;;;5125083;27;20513;-60
2022/03/13 01:24:46;;;;;;;;;;;21.10;21.80;;;;;;5130828;27;19927;-60
2022/03/13 01:27:13;;;;;;;;;;;21.20;21.70;;;;;;5125205;27;20406;-58
2022/03/13 01:29:39;;;;;;;;;;;21.20;21.70;;;;;;5126362;27;20290;-53
2022/03/13 01:32:05;;;;;;;;;;;21.20;21.70;;;;;;5127486;27;20010;-59
2022/03/13 01:34:41;;;;;;;;;;;21.00;22.00;;;;;;5122664;27;20996;-61
2022/03/13 01:37:30;;;;;;;;;;;21.20;21.70;;;;;;5130483;27;20006;-57
2022/03/13 01:40:00;;;;;;;;;;;21.20;21.70;;;;;;5117859;27;19923;-55
2022/03/13 01:42:25;;;;;;;;;;;21.10;21.70;;;;;;5125192;27;20226;-57
2022/03/13 01:44:51;;;;;;;;;;;21.10;21.70;;;;;;5130517;27;19923;-59
2022/03/13 01:47:17;;;;;;;;;;;21.20;21.60;;;;;;5125198;27;19931;-58
2022/03/13 01:49:43;;;;;;;;;;;21.00;21.80;;;;;;5124219;27;20155;-55
2022/03/13 01:52:09;;;;;;;;;;;21.10;21.70;;;;;;5126637;27;19923;-58
2022/03/13 01:54:35;;;;;;;;;;;21.20;21.60;;;;;;5124146;27;20333;-58
2022/03/13 01:57:01;;;;;;;;;;;21.00;21.70;;;;;;5124585;27;20182;-59
2022/03/13 01:59:28;;;;;;;;;;;21.10;21.60;;;;;;5130181;27;19934;-60
2022/03/13 02:01:54;;;;;;;;;;;21.30;21.50;;;;;;5124785;27;19928;-60
2022/03/13 02:04:24;;;;;;;;;;;21.20;21.60;;;;;;5129942;27;19941;-57
2022/03/13 02:06:50;;;;;;;;;;;21.10;21.70;;;;;;5127051;27;19972;-56
2022/03/13 02:09:16;;;;;;;;;;;21.10;21.60;;;;;;5121686;27;20375;-60
2022/03/13 02:11:42;;;;;;;;;;;21.20;21.50;;;;;;5128141;27;19958;-59
2022/03/13 02:14:11;;;;;;;;;;;21.10;21.50;;;;;;5124194;27;19930;-60
2022/03/13 02:16:37;;;;;;;;;;;21.10;21.50;;;;;;5124341;27;20005;-57
2022/03/13 02:19:02;;;;;;;;;;;21.20;21.40;;;;;;5129815;27;19929;-59
2022/03/13 02:21:29;;;;;;;;;;;21.10;21.50;;;;;;5124127;27;19934;-59
2022/03/13 02:23:54;;;;;;;;;;;21.10;21.40;;;;;;5124264;27;19924;-60
2022/03/13 02:26:20;;;;;;;;;;;21.30;21.30;;;;;;5129278;27;19979;-60
2022/03/13 02:28:53;;;;;;;;;;;21.10;21.40;;;;;;5120456;27;19938;-58
2022/03/13 02:31:29;;;;;;;;;;;21.10;21.40;;;;;;5128763;27;19926;-56
2022/03/13 02:33:55;;;;;;;;;;;21.20;21.20;;;;;;5126050;27;19976;-59
2022/03/13 02:36:32;;;;;;;;;;;21.20;21.20;;;;;;5124180;27;19935;-53
2022/03/13 02:38:58;;;;;;;;;;;21.20;21.20;;;;;;5129502;27;20018;-57
2022/03/13 02:41:26;;;;;;;;;;;21.00;21.40;;;;;;5123814;27;19928;-59
2022/03/13 02:43:52;;;;;;;;;;;21.10;21.20;;;;;;5123757;27;19923;-59
2022/03/13 02:46:19;;;;;;;;;;;21.10;21.20;;;;;;5124873;27;19923;-57
2022/03/13 02:48:45;;;;;;;;;;;21.20;21.10;;;;;;5122176;27;19965;-61
2022/03/13 02:51:11;;;;;;;;;;;21.20;21.20;;;;;;5123712;27;19923;-59
2022/03/13 02:53:37;;;;;;;;;;;21.20;21.10;;;;;;5129139;27;19945;-58
2022/03/13 02:56:03;;;;;;;;;;;21.20;21.00;;;;;;5122417;27;20015;-58
2022/03/13 02:58:29;;;;;;;;;;;21.20;21.00;;;;;;5129174;27;20014;-57
2022/03/13 03:00:55;;;;;;;;;;;21.20;21.00;;;;;;5123373;27;19999;-59
2022/03/13 03:03:21;;;;;;;;;;;21.10;21.00;;;;;;5123223;27;19934;-60
2022/03/13 03:05:47;;;;;;;;;;;21.20;21.00;;;;;;5124758;27;19934;-59
2022/03/13 03:08:13;;;;;;;;;;;21.20;21.00;;;;;;5122615;27;19935;-60
2022/03/13 03:10:39;;;;;;;;;;;21.10;21.00;;;;;;5123428;27;20181;-58
2022/03/13 03:13:05;;;;;;;;;;;21.20;20.90;;;;;;5128921;27;19924;-58
2022/03/13 03:15:30;;;;;;;;;;;21.10;20.90;;;;;;5123534;27;20282;-60
2022/03/13 03:17:56;;;;;;;;;;;21.20;20.90;;;;;;5127289;27;19932;-58
2022/03/13 03:20:22;;;;;;;;;;;21.10;20.90;;;;;;5125084;27;20064;-57
2022/03/13 03:22:48;;;;;;;;;;;21.10;20.90;;;;;;5120748;27;19952;-56
2022/03/13 03:25:14;;;;;;;;;;;21.20;20.70;;;;;;5124367;27;20162;-57
2022/03/13 03:27:40;;;;;;;;;;;21.20;20.70;;;;;;5122612;27;19931;-59
2022/03/13 03:30:06;;;;;;;;;;;21.20;20.70;;;;;;5123116;27;20027;-58
2022/03/13 03:32:32;;;;;;;;;;;21.20;20.60;;;;;;5128401;27;20009;-54
2022/03/13 03:34:57;;;;;;;;;;;21.20;20.60;;;;;;5122871;27;20435;-61
2022/03/13 03:37:23;;;;;;;;;;;21.00;20.60;;;;;;5124384;27;20390;-58
2022/03/13 03:39:49;;;;;;;;;;;21.10;20.50;;;;;;5126664;27;19945;-58
2022/03/13 03:42:15;;;;;;;;;;;21.10;20.50;;;;;;5118922;27;20354;-60
2022/03/13 03:44:41;;;;;;;;;;;21.20;20.40;;;;;;5127082;27;19923;-59
2022/03/13 03:47:07;;;;;;;;;;;21.20;20.40;;;;;;5122606;27;20295;-59
2022/03/13 03:49:34;;;;;;;;;;;21.20;20.40;;;;;;5122564;27;19923;-59
2022/03/13 03:52:00;;;;;;;;;;;21.10;20.50;;;;;;5128163;27;19931;-59
2022/03/13 03:54:25;;;;;;;;;;;21.10;20.40;;;;;;5121362;27;19930;-57
2022/03/13 03:56:51;;;;;;;;;;;21.20;20.30;;;;;;5122631;27;19923;-59
2022/03/13 03:59:19;;;;;;;;;;;21.30;20.20;;;;;;5126872;27;20069;-58
2022/03/13 04:01:45;;;;;;;;;;;21.20;20.20;;;;;;5118579;27;19961;-60
2022/03/13 04:04:11;;;;;;;;;;;21.20;20.20;;;;;;5127281;27;19946;-57
2022/03/13 04:06:38;;;;;;;;;;;21.10;20.20;;;;;;5122448;27;19939;-59
2022/03/13 04:09:05;;;;;;;;;;;21.10;20.20;;;;;;5122375;27;20283;-57
2022/03/13 04:11:30;;;;;;;;;;;21.20;20.10;;;;;;5127620;27;19976;-57
2022/03/13 04:13:57;;;;;;;;;;;21.20;20.20;;;;;;5122178;27;20309;-59
2022/03/13 04:16:22;;;;;;;;;;;21.10;20.20;;;;;;5120849;27;19930;-58
2022/03/13 04:18:48;;;;;;;;;;;21.20;20.10;;;;;;5124339;27;20359;-59
2022/03/13 04:21:15;;;;;;;;;;;21.20;20.10;;;;;;5120176;27;20336;-59
2022/03/13 04:23:40;;;;;;;;;;;21.20;20.10;;;;;;5127406;27;20394;-60
2022/03/13 04:26:06;;;;;;;;;;;21.10;20.20;;;;;;5120857;27;19972;-59
2022/03/13 04:28:33;;;;;;;;;;;21.10;20.20;;;;;;5122130;27;19924;-60
2022/03/13 04:31:00;;;;;;;;;;;21.20;20.20;;;;;;5127462;27;19992;-60
2022/03/13 04:33:26;;;;;;;;;;;21.20;20.10;;;;;;5121111;27;20022;-57
2022/03/13 04:35:53;;;;;;;;;;;21.20;20.10;;;;;;5121426;27;20139;-58
2022/03/13 04:38:19;;;;;;;;;;;21.20;20.10;;;;;;5123259;27;19931;-60
2022/03/13 04:40:46;;;;;;;;;;;21.00;20.30;;;;;;5120839;27;20401;-59
2022/03/13 04:43:12;;;;;;;;;;;21.10;20.20;;;;;;5123643;27;19923;-57
2022/03/13 04:45:37;;;;;;;;;;;21.20;20.20;;;;;;5125608;27;19928;-55
2022/03/13 04:48:03;;;;;;;;;;;21.20;20.20;;;;;;5121588;27;19923;-60
2022/03/13 04:50:29;;;;;;;;;;;21.20;20.20;;;;;;5127026;27;19946;-60
2022/03/13 04:52:55;;;;;;;;;;;21.20;20.20;;;;;;5121489;27;20347;-59
2022/03/13 04:55:21;;;;;;;;;;;21.20;20.20;;;;;;5119840;28;19975;-58
2022/03/13 04:57:46;;;;;;;;;;;21.20;20.20;;;;;;5124077;28;20226;-59
2022/03/13 05:00:12;;;;;;;;;;;21.00;20.30;;;;;;5121238;28;20447;-60
2022/03/13 05:02:38;;;;;;;;;;;21.10;20.20;;;;;;5120052;28;19979;-58
2022/03/13 05:05:04;;;;;;;;;;;21.20;20.20;;;;;;5127225;28;19931;-58
2022/03/13 05:07:30;;;;;;;;;;;21.20;20.20;;;;;;5121762;27;19923;-56
2022/03/13 05:09:56;;;;;;;;;;;21.20;20.20;;;;;;5126941;27;19923;-58
2022/03/13 05:12:28;;;;;;;;;;;21.20;20.20;;;;;;5121085;28;19931;-54
2022/03/13 05:14:54;;;;;;;;;;;21.20;20.30;;;;;;5116381;28;20018;-59
2022/03/13 05:17:20;;;;;;;;;;;21.20;20.30;;;;;;5124523;28;20397;-58
2022/03/13 05:19:46;;;;;;;;;;;21.20;20.30;;;;;;5121217;27;19924;-59
2022/03/13 05:22:12;;;;;;;;;;;21.00;20.40;;;;;;5121135;28;20284;-59
2022/03/13 05:24:37;;;;;;;;;;;21.10;20.40;;;;;;5126891;28;19923;-57
2022/03/13 05:27:03;;;;;;;;;;;21.30;20.30;;;;;;5121039;28;20287;-59
2022/03/13 05:29:29;;;;;;;;;;;21.20;20.40;;;;;;5126740;28;19923;-60
2022/03/13 05:31:55;;;;;;;;;;;21.10;20.50;;;;;;5120257;28;19923;-59
2022/03/13 05:34:20;;;;;;;;;;;21.10;20.50;;;;;;5117527;28;19927;-59
2022/03/13 05:36:46;;;;;;;;;;;21.20;20.40;;;;;;5126156;28;19968;-56
2022/03/13 05:39:12;;;;;;;;;;;21.30;20.40;;;;;;5119840;28;19927;-59
2022/03/13 05:41:39;;;;;;;;;;;21.10;20.50;;;;;;5121263;27;19945;-58
2022/03/13 05:44:09;;;;;;;;;;;21.20;20.50;;;;;;5126716;27;19923;-59
2022/03/13 05:46:35;;;;;;;;;;;21.30;20.40;;;;;;5123774;27;20050;-59
2022/03/13 05:49:02;;;;;;;;;;;21.10;20.50;;;;;;5125427;27;19987;-57
2022/03/13 05:51:27;;;;;;;;;;;21.10;20.50;;;;;;5126188;27;19929;-58
2022/03/13 05:53:53;;;;;;;;;;;21.10;20.50;;;;;;5123020;27;19927;-56
2022/03/13 05:56:19;;;;;;;;;;;21.10;20.50;;;;;;5130095;27;19927;-58
2022/03/13 05:58:45;;;;;;;;;;;21.10;20.60;;;;;;5124648;27;19930;-59
2022/03/13 06:01:11;;;;;;;;;;;21.20;20.60;;;;;;5124627;27;19932;-59
2022/03/13 06:03:38;;;;;;;;;;;21.10;20.70;;;;;;5130321;27;19927;-59
2022/03/13 06:06:04;;;;;;;;;;;21.20;20.60;;;;;;5123343;27;19927;-59
2022/03/13 06:08:31;;;;;;;;;;;21.30;20.50;;;;;;5124370;27;19932;-59
2022/03/13 06:10:57;;;;;;;;;;;21.20;20.60;;;;;;5126039;27;19924;-57
2022/03/13 06:13:24;;;;;;;;;;;21.20;20.60;;;;;;5123752;27;20374;-58
2022/03/13 06:15:50;;;;;;;;;;;21.30;20.70;;;;;;5129971;27;20390;-60
2022/03/13 06:18:16;;;;;;;;;;;21.10;20.70;;;;;;5124315;27;19931;-59
2022/03/13 06:20:41;;;;;;;;;;;21.10;20.80;;;;;;5124218;27;20023;-59
2022/03/13 06:23:09;;;;;;;;;;;21.20;20.80;;;;;;5129652;27;19927;-56
2022/03/13 06:25:35;;;;;;;;;;;21.20;20.70;;;;;;5124184;27;20263;-58
2022/03/13 06:28:00;;;;;;;;;;;21.10;20.80;;;;;;5121010;27;20421;-59
2022/03/13 06:30:26;;;;;;;;;;;21.20;20.80;;;;;;5126723;27;20385;-59
2022/03/13 06:32:52;;;;;;;;;;;21.20;20.80;;;;;;5123935;27;20358;-60
2022/03/13 06:35:19;;;;;;;;;;;21.10;20.90;;;;;;5128511;27;19976;-59
2022/03/13 06:37:45;;;;;;;;;;;21.10;20.90;;;;;;5124575;27;19931;-58
2022/03/13 06:40:12;;;;;;;;;;;21.20;20.90;;;;;;5124067;27;20287;-59
2022/03/13 06:42:38;;;;;;;;;;;21.20;20.80;;;;;;5129544;27;20430;-59
2022/03/13 06:45:04;;;;;;;;;;;21.10;20.90;;;;;;5123690;27;20328;-59
2022/03/13 06:47:30;;;;;;;;;;;21.10;20.90;;;;;;5120328;27;20056;-58
2022/03/13 06:49:56;;;;;;;;;;;21.20;20.90;;;;;;5128260;27;19928;-58
2022/03/13 06:52:22;;;;;;;;;;;21.20;20.80;;;;;;5123706;27;19935;-58
2022/03/13 06:54:47;;;;;;;;;;;21.20;20.90;;;;;;5126347;27;19984;-57
2022/03/13 06:57:15;;;;;;;;;;;21.20;21.00;;;;;;5125896;27;19927;-58
2022/03/13 06:59:42;;;;;;;;;;;21.20;21.00;;;;;;5123760;27;19924;-58
2022/03/13 07:02:09;;;;;;;;;;;21.10;21.10;;;;;;5129098;27;20306;-59
2022/03/13 07:04:35;;;;;;;;;;;21.10;21.10;;;;;;5122418;27;19932;-59
2022/03/13 07:07:01;;;;;;;;;;;21.10;21.10;;;;;;5119862;27;19930;-59
2022/03/13 07:09:27;;;;;;;;;;;21.20;21.10;;;;;;5128270;27;19977;-58
2022/03/13 07:11:53;;;;;;;;;;;21.20;21.20;;;;;;5123331;27;20014;-58
2022/03/13 07:14:21;;;;;;;;;;;21.30;21.10;;;;;;5123535;27;19931;-57
2022/03/13 07:16:50;;;;;;;;;;;21.10;21.20;;;;;;5128784;27;20026;-58
2022/03/13 07:19:16;;;;;;;;;;;21.20;21.20;;;;;;5123312;27;20438;-58
2022/03/13 07:21:42;;;;;;;;;;;21.20;21.10;;;;;;5127188;27;19928;-56
2022/03/13 07:24:08;;;;;;;;;;;21.20;21.20;;;;;;5119979;27;19984;-57
2022/03/13 07:26:33;;;;;;;;;;;21.30;21.10;;;;;;5121404;27;19923;-59
2022/03/13 07:29:02;;;;;;;;;;;21.20;21.20;;;;;;5128322;27;20024;-59
2022/03/13 07:31:29;;;;;;;;;;;21.20;21.30;;;;;;5122960;27;20014;-59
2022/03/13 07:33:55;;;;;;;;;;;21.20;21.20;;;;;;5123117;27;19927;-60
2022/03/13 07:36:20;;;;;;;;;;;21.10;21.30;;;;;;5128492;27;20407;-57
2022/03/13 07:38:46;;;;;;;;;;;21.30;21.20;;;;;;5123060;27;19976;-59
2022/03/13 07:41:12;;;;;;;;;;;21.20;21.20;;;;;;5126388;27;19923;-57
2022/03/13 07:43:38;;;;;;;;;;;21.20;21.30;;;;;;5120632;27;19923;-58
2022/03/13 07:46:03;;;;;;;;;;;21.10;21.40;;;;;;5121888;27;20275;-60
2022/03/13 07:48:29;;;;;;;;;;;21.20;21.30;;;;;;5126833;27;19927;-55
2022/03/13 07:50:56;;;;;;;;;;;21.20;21.20;;;;;;5122656;27;19927;-59
2022/03/13 07:53:26;;;;;;;;;;;21.10;21.30;;;;;;5122565;27;19923;-61
2022/03/13 07:55:52;;;;;;;;;;;21.30;21.20;;;;;;5127904;27;19927;-60
2022/03/13 07:58:18;;;;;;;;;;;21.20;21.20;;;;;;5122243;27;20294;-59
2022/03/13 08:00:45;;;;;;;;;;;21.20;21.20;;;;;;5120142;27;20018;-57
2022/03/13 08:03:11;;;;;;;;;;;21.20;21.20;;;;;;5125001;27;19927;-59
2022/03/13 08:05:37;;;;;;;;;;;21.10;21.20;;;;;;5121966;27;19927;-59
2022/03/13 08:08:03;;;;;;;;;;;21.20;21.20;;;;;;5127783;27;19935;-60
2022/03/13 08:10:29;;;;;;;;;;;21.20;21.10;;;;;;5122380;27;19923;-55
2022/03/13 08:12:55;;;;;;;;;;;21.10;21.00;;;;;;5122275;27;19988;-57
2022/03/13 08:15:21;;;;;;;;;;;21.10;20.90;;;;;;5127762;27;20019;-60
2022/03/13 08:17:46;;;;;;;;;;;21.20;20.80;;;;;;5120580;27;20302;-57
2022/03/13 08:20:13;;;;;;;;;;;21.20;20.80;;;;;;5118747;27;19927;-58
2022/03/13 08:22:39;;;;;;;;;;;21.00;21.00;;;;;;5126363;27;19938;-59
2022/03/13 08:25:05;;;;;;;;;;;21.20;20.70;;;;;;5122106;27;20310;-57
2022/03/13 08:27:31;;;;;;;;;;;21.10;20.70;;;;;;5123533;27;20340;-56
2022/03/13 08:29:58;;;;;;;;;;;21.20;20.70;;;;;;5121966;27;19923;-59
2022/03/13 08:32:24;;;;;;;;;;;21.20;20.70;;;;;;5121937;27;19923;-58
2022/03/13 08:34:52;;;;;;;;;;;21.20;20.80;;;;;;5127267;27;19934;-61
2022/03/13 08:37:17;;;;;;;;;;;21.20;20.70;;;;;;5120788;27;19927;-57
2022/03/13 08:39:43;;;;;;;;;;;21.10;20.80;;;;;;5118465;27;20027;-55
2022/03/13 08:42:09;;;;;;;;;;;21.20;20.80;;;;;;5126548;27;20399;-53
2022/03/13 08:44:35;;;;;;;;;;;21.20;20.80;;;;;;5121829;27;19923;-57
2022/03/13 08:47:01;;;;;;;;;;;21.20;20.80;;;;;;5125640;27;19952;-54
2022/03/13 08:49:27;;;;;;;;;;;21.10;20.80;;;;;;5123330;27;19996;-51
2022/03/13 08:51:53;;;;;;;;;;;21.20;20.70;;;;;;5121459;27;20336;-60
2022/03/13 08:54:19;;;;;;;;;;;21.10;20.80;;;;;;5126906;27;19931;-58
2022/03/13 08:56:46;;;;;;;;;;;21.20;20.70;;;;;;5118979;27;20302;-60
2022/03/13 08:59:12;;;;;;;;;;;21.10;20.80;;;;;;5119600;27;20026;-54
2022/03/13 09:01:37;;;;;;;;;;;21.20;20.70;;;;;;5126986;28;19923;-58
2022/03/13 09:04:03;;;;;;;;;;;21.10;20.80;;;;;;5121737;28;19924;-53
2022/03/13 09:06:29;;;;;;;;;;;21.20;20.80;;;;;;5122771;28;20430;-59
2022/03/13 09:08:55;;;;;;;;;;;21.20;20.70;;;;;;5124848;28;19930;-49
2022/03/13 09:11:20;;;;;;;;;;;21.10;20.80;;;;;;5121560;28;19924;-57
2022/03/13 09:13:46;;;;;;;;;;;21.20;20.80;;;;;;5126983;28;19934;-59
2022/03/13 09:16:12;;;;;;;;;;;21.00;20.90;;;;;;5117734;28;19985;-58
2022/03/13 09:18:38;;;;;;;;;;;21.30;20.60;;;;;;5119620;27;19927;-59
2022/03/13 09:21:04;;;;;;;;;;;21.10;20.80;;;;;;5130244;27;19923;-58
2022/03/13 09:23:30;;;;;;;;;;;21.30;20.60;;;;;;5125615;27;20434;-54
2022/03/13 09:25:56;;;;;;;;;;;21.20;20.80;;;;;;5125798;27;19975;-59
2022/03/13 09:28:22;;;;;;;;;;;21.20;20.80;;;;;;5130898;27;19923;-58
2022/03/13 09:30:48;;;;;;;;;;;21.00;21.00;;;;;;5125478;27;19972;-58
2022/03/13 09:33:14;;;;;;;;;;;21.20;20.90;;;;;;5129168;27;20391;-57
2022/03/13 09:35:39;;;;;;;;;;;21.10;21.00;;;;;;5122153;27;20302;-54
2022/03/13 09:38:05;;;;;;;;;;;21.20;21.00;;;;;;5124793;27;19924;-54
2022/03/13 09:40:33;;;;;;;;;;;21.20;21.00;;;;;;5130925;27;19935;-57
2022/03/13 09:43:00;;;;;;;;;;;21.10;21.10;;;;;;5125201;27;19923;-56
2022/03/13 09:45:26;;;;;;;;;;;21.20;21.10;;;;;;5124198;27;20380;-59
2022/03/13 09:47:52;;;;;;;;;;;21.00;21.30;;;;;;5130594;27;19923;-55
2022/03/13 09:50:18;;;;;;;;;;;21.00;21.30;;;;;;5124784;27;19923;-54
2022/03/13 09:52:44;;;;;;;;;;;21.20;21.20;;;;;;5126933;27;20342;-51
2022/03/13 09:55:10;;;;;;;;;;;21.10;21.20;;;;;;5123741;27;19948;-55
2022/03/13 09:57:37;;;;;;;;;;;21.10;21.20;;;;;;5124419;27;20298;-54
2022/03/13 10:00:04;;;;;;;;;;;21.20;21.20;;;;;;5130312;27;19923;-58
2022/03/13 10:02:34;;;;;;;;;;;21.20;21.20;;;;;;5125056;27;19942;-57
2022/03/13 10:05:04;;;;;;;;;;;21.00;21.40;;;;;;5125100;27;20010;-56
2022/03/13 10:07:30;;;;;;;;;;;21.20;21.20;;;;;;5130509;27;19971;-59
2022/03/13 10:09:57;;;;;;;;;;;21.10;21.50;;;;;;5122808;27;19923;-58
2022/03/13 10:12:23;;;;;;;;;;;21.20;21.40;;;;;;5121371;27;19937;-58
2022/03/13 10:14:57;;;;;;;;;;;21.10;21.60;;;;;;5129487;27;19925;-55
2022/03/13 10:17:27;;;;;;;;;;;21.10;21.50;;;;;;5124401;27;20014;-53
2022/03/13 10:19:52;;;;;;;;;;;21.20;21.50;;;;;;5129859;27;20357;-57
2022/03/13 10:22:18;;;;;;;;;;;21.00;21.70;;;;;;5124890;27;19930;-58
2022/03/13 10:24:45;;;;;;;;;;;21.30;21.50;;;;;;5124619;27;20359;-59
2022/03/13 10:27:17;;;;;;;;;;;21.00;21.80;;;;;;5129598;27;19930;-61
2022/03/13 10:29:44;;;;;;;;;;;21.30;21.70;;;;;;5121131;27;20380;-59
2022/03/13 10:32:10;;;;;;;;;;;21.00;22.10;;;;;;5121399;27;19930;-56
2022/03/13 10:34:35;;;;;;;;;;;21.20;21.90;;;;;;5129694;27;20018;-59
2022/03/13 10:37:02;;;;;;;;;;;21.10;22.10;;;;;;5122746;27;20367;-61
2022/03/13 10:39:27;;;;;;;;;;;21.30;21.90;;;;;;5124343;27;19933;-55
2022/03/13 10:41:56;;;;;;;;;;;21.10;22.10;;;;;;5128475;27;19931;-53
2022/03/13 10:44:25;;;;;;;;;;;21.10;22.20;;;;;;5122623;27;19924;-57
2022/03/13 10:47:03;;;;;;;;;;;21.30;22.10;;;;;;5128951;27;19930;-57
2022/03/13 10:49:40;;;;;;;;;;;21.00;22.40;;;;;;5122572;27;19923;-59
2022/03/13 10:52:31;;;;;;;;;;;21.20;22.30;;;;;;5123767;27;19933;-59
2022/03/13 10:55:00;;;;;;;;;;;21.00;22.60;;;;;;5124064;27;20389;-59
2022/03/13 10:57:26;;;;;;;;;;;21.10;22.40;;;;;;5128135;27;19930;-58
2022/03/13 11:00:09;;;;;;;;;;;21.20;22.40;;;;;;5124219;27;19924;-52
2022/03/13 11:02:35;;;;;;;;;;;21.10;22.50;;;;;;5126713;27;19934;-55
2022/03/13 11:05:00;;;;;;;;;;;21.20;22.40;;;;;;5126989;27;19927;-59
2022/03/13 11:07:27;;;;;;;;;;;21.00;22.60;;;;;;5120084;27;19923;-60
2022/03/13 11:09:53;;;;;;;;;;;21.20;22.50;;;;;;5127904;27;20390;-57
2022/03/13 11:12:23;;;;;;;;;;;21.10;22.50;;;;;;5123646;27;20595;-60
2022/03/13 11:14:56;;;;;;;;;;;21.30;22.30;;;;;;5123559;27;19927;-59
2022/03/13 11:17:23;;;;;;;;;;;21.30;22.30;;;;;;5128836;27;19976;-58
2022/03/13 11:19:53;;;;;;;;;;;21.10;22.50;;;;;;5121999;27;20297;-54
2022/03/13 11:22:22;;;;;;;;;;;21.30;22.30;;;;;;5122071;27;19945;-57
2022/03/13 11:24:48;;;;;;;;;;;21.10;22.40;;;;;;5126711;27;20031;-56
2022/03/13 11:27:15;;;;;;;;;;;21.20;22.30;;;;;;5120528;27;19927;-58
2022/03/13 11:29:42;;;;;;;;;;;21.00;22.50;;;;;;5125485;27;20477;-55
2022/03/13 11:32:27;;;;;;;;;;;21.30;22.30;;;;;;5126187;27;19953;-58
2022/03/13 11:35:18;;;;;;;;;;;21.10;22.70;;;;;;5123256;27;19927;-60
2022/03/13 11:37:50;;;;;;;;;;;21.20;22.60;;;;;;5122102;27;20022;-61
2022/03/13 11:40:30;;;;;;;;;;;21.20;22.60;;;;;;5128145;27;19927;-57
2022/03/13 11:43:04;;;;;;;;;;;21.00;22.80;;;;;;5121027;27;19927;-61
2022/03/13 11:45:32;;;;;;;;;;;21.30;22.50;;;;;;5120067;27;19924;-50
2022/03/13 11:48:24;;;;;;;;;;;20.90;22.90;;;;;;5127794;27;20381;-58
2022/03/13 11:50:51;;;;;;;;;;;21.20;22.70;;;;;;5122954;27;20382;-59
2022/03/13 11:53:20;;;;;;;;;;;21.00;22.90;;;;;;5123015;27;20210;-59
2022/03/13 11:56:10;;;;;;;;;;;21.30;22.60;;;;;;5127991;27;19927;-59
2022/03/13 11:58:49;;;;;;;;;;;21.10;22.90;;;;;;5122754;27;19943;-61
2022/03/13 12:01:21;;;;;;;;;;;21.20;22.70;;;;;;5121444;27;19967;-49
2022/03/13 12:04:03;;;;;;;;;;;21.20;22.70;;;;;;5124352;27;19996;-61
2022/03/13 12:06:42;;;;;;;;;;;21.20;22.50;;;;;;5122049;27;19976;-56
2022/03/13 12:09:08;;;;;;;;;;;21.20;22.30;;;;;;5122467;27;20310;-57
2022/03/13 12:11:42;;;;;;;;;;;21.10;22.40;;;;;;5127731;27;19928;-62
2022/03/13 12:14:08;;;;;;;;;;;21.30;22.40;;;;;;5122477;27;19923;-56
2022/03/13 12:16:35;;;;;;;;;;;21.00;22.60;;;;;;5122671;27;19923;-60
2022/03/13 12:19:01;;;;;;;;;;;21.30;22.50;;;;;;5127267;27;19923;-51
2022/03/13 12:21:26;;;;;;;;;;;21.00;22.80;;;;;;5118148;27;20396;-60
2022/03/13 12:23:52;;;;;;;;;;;21.30;22.50;;;;;;5124126;27;19923;-54
2022/03/13 12:26:19;;;;;;;;;;;21.00;22.70;;;;;;5125197;27;19931;-57
2022/03/13 12:28:45;;;;;;;;;;;21.20;22.50;;;;;;5122178;27;19924;-62
2022/03/13 12:31:11;;;;;;;;;;;21.20;22.50;;;;;;5127523;27;19927;-59
2022/03/13 12:33:38;;;;;;;;;;;21.20;22.30;;;;;;5121904;27;20158;-58
2022/03/13 12:36:04;;;;;;;;;;;21.20;22.20;;;;;;5122369;27;19923;-62
2022/03/13 12:38:30;;;;;;;;;;;21.20;22.20;;;;;;5126405;27;19923;-56
2022/03/13 12:40:57;;;;;;;;;;;21.10;22.30;;;;;;5119159;27;20279;-60
2022/03/13 12:43:24;;;;;;;;;;;21.20;22.40;;;;;;5121537;27;19924;-52
2022/03/13 12:45:52;;;;;;;;;;;21.20;22.50;;;;;;5127329;27;19930;-61
2022/03/13 12:48:18;;;;;;;;;;;21.30;22.60;;;;;;5120430;27;19928;-50
2022/03/13 12:50:47;;;;;;;;;;;21.10;22.70;;;;;;5127344;27;19923;-60
2022/03/13 12:53:18;;;;;;;;;;;21.30;22.50;;;;;;5122080;27;20864;-48
2022/03/13 12:55:51;;;;;;;;;;;21.00;22.70;;;;;;5121043;27;19923;-60
2022/03/13 12:58:17;;;;;;;;;;;21.20;22.50;;;;;;5123540;27;19976;-50
2022/03/13 13:00:43;;;;;;;;;;;21.10;22.60;;;;;;5119337;28;19923;-62
2022/03/13 13:03:08;;;;;;;;;;;21.30;22.50;;;;;;5122330;27;19934;-55
2022/03/13 13:05:34;;;;;;;;;;;21.10;22.40;;;;;;5126232;28;20371;-60
2022/03/13 13:08:00;;;;;;;;;;;21.20;22.20;;;;;;5122561;28;20294;-56
2022/03/13 13:10:26;;;;;;;;;;;21.20;22.20;;;;;;5122116;28;19923;-57
2022/03/13 13:12:51;;;;;;;;;;;21.20;22.20;;;;;;5126987;28;19928;-57
2022/03/13 13:15:20;;;;;;;;;;;21.20;22.20;;;;;;5121390;28;20018;-51
2022/03/13 13:17:46;;;;;;;;;;;21.10;22.40;;;;;;5122958;27;20438;-56
2022/03/13 13:20:19;;;;;;;;;;;21.30;22.30;;;;;;5120795;27;19927;-57
2022/03/13 13:22:45;;;;;;;;;;;21.20;22.30;;;;;;5121358;27;19923;-54
2022/03/13 13:25:12;;;;;;;;;;;21.20;22.20;;;;;;5126759;27;19974;-61
2022/03/13 13:27:41;;;;;;;;;;;21.30;22.10;;;;;;5121230;27;19937;-60
2022/03/13 13:30:21;;;;;;;;;;;21.20;22.00;;;;;;5121565;27;19946;-60
2022/03/13 13:32:48;;;;;;;;;;;21.20;22.10;;;;;;5126747;28;20371;-56
2022/03/13 13:35:15;;;;;;;;;;;21.10;22.30;;;;;;5118235;27;19924;-60
2022/03/13 13:38:00;;;;;;;;;;;21.20;22.40;;;;;;5118366;28;20105;-50
2022/03/13 13:40:29;;;;;;;;;;;21.00;22.40;;;;;;5126738;27;19934;-61
2022/03/13 13:42:55;;;;;;;;;;;21.30;21.90;;;;;;5121339;28;20279;-61
2022/03/13 13:45:20;;;;;;;;;;;21.30;22.00;;;;;;5121363;28;20149;-52
2022/03/13 13:47:46;;;;;;;;;;;21.10;22.10;;;;;;5126721;28;20007;-60
2022/03/13 13:50:15;;;;;;;;;;;21.30;22.10;;;;;;5121486;27;19934;-50
2022/03/13 13:52:42;;;;;;;;;;;21.10;22.20;;;;;;5125540;27;19952;-59
2022/03/13 13:55:21;;;;;;;;;;;21.30;22.00;;;;;;5117812;28;19924;-56
2022/03/13 13:57:47;;;;;;;;;;;21.10;22.20;;;;;;5121095;27;19924;-57
2022/03/13 14:00:42;;;;;;;;;;;21.30;22.00;;;;;;5126503;28;20379;-60
2022/03/13 14:03:08;;;;;;;;;;;21.30;22.00;;;;;;5107811;27;20324;-58
2022/03/13 14:05:34;;;;;;;;;;;21.10;22.30;;;;;;5121930;27;20018;-59
2022/03/13 14:08:00;;;;;;;;;;;21.30;21.90;;;;;;5130235;27;19990;-58
2022/03/13 14:10:26;;;;;;;;;;;21.20;22.00;;;;;;5124265;27;20364;-60
2022/03/13 14:12:52;;;;;;;;;;;21.20;22.00;;;;;;5120730;27;20306;-59
2022/03/13 14:15:19;;;;;;;;;;;21.20;22.00;;;;;;5129282;27;20367;-53
2022/03/13 14:17:45;;;;;;;;;;;21.20;22.10;;;;;;5123415;27;20018;-61